Time;durP1;ratioP1;P1;durP2;ratioP2;P2;SDS_P1;SDS_P2;PMS_P1;PMS_P2;Temp;Humidity;BMP_temperature;BMP_pressure;BME280_temperature;BME280_humidity;BME280_pressure;Samples;Min_cycle;Max_cycle;Signal;HPM_P1;HPM_P2
2022/05/25 00:01:37;;;;;;;1.27;1.00;;;15.10;99.90;;;;;;5053440;28;20177;-46
2022/05/25 00:04:05;;;;;;;1.20;1.03;;;15.10;99.90;;;;;;5053469;28;20239;-46
2022/05/25 00:06:31;;;;;;;1.37;1.17;;;15.10;99.90;;;;;;5054385;28;20177;-46
2022/05/25 00:08:56;;;;;;;1.47;1.13;;;15.10;99.90;;;;;;5054422;28;20189;-45
2022/05/25 00:11:23;;;;;;;1.40;1.30;;;15.10;99.90;;;;;;5073990;28;20173;-46
2022/05/25 00:13:49;;;;;;;5.60;1.10;;;15.10;99.90;;;;;;5057588;28;20303;-45
2022/05/25 00:16:15;;;;;;;1.03;1.03;;;15.20;99.90;;;;;;5057773;28;20193;-45
2022/05/25 00:21:27;;;;;;;1.87;1.00;;;15.10;99.90;;;;;;5064275;28;20189;-46
2022/05/25 00:23:53;;;;;;;1.07;1.07;;;15.10;99.90;;;;;;5057619;28;20205;-46
2022/05/25 00:26:19;;;;;;;1.77;1.20;;;15.10;99.90;;;;;;5057877;28;20184;-46
2022/05/25 00:28:44;;;;;;;3.73;1.20;;;15.00;99.90;;;;;;5057606;28;20254;-46
2022/05/25 00:31:12;;;;;;;1.20;1.10;;;15.00;99.90;;;;;;5074156;28;20702;-46
2022/05/25 00:33:38;;;;;;;1.20;1.10;;;15.00;99.90;;;;;;5057474;28;20188;-46
2022/05/25 00:36:04;;;;;;;1.63;1.10;;;14.90;99.90;;;;;;5074574;28;20169;-43
2022/05/25 00:38:30;;;;;;;1.87;0.90;;;15.00;99.90;;;;;;5057542;28;20188;-45
2022/05/25 00:40:57;;;;;;;2.00;1.27;;;14.90;99.90;;;;;;5057642;28;20174;-46
2022/05/25 00:43:23;;;;;;;1.87;1.20;;;15.00;99.90;;;;;;5057427;28;20173;-46
2022/05/25 00:46:01;;;;;;;1.00;1.00;;;15.00;99.90;;;;;;5056978;28;20236;-45
2022/05/25 00:48:40;;;;;;;2.53;1.10;;;15.00;99.90;;;;;;5075176;28;20252;-45
2022/05/25 00:51:12;;;;;;;3.03;1.20;;;15.10;99.90;;;;;;5057335;28;20177;-43
2022/05/25 00:53:41;;;;;;;3.73;1.43;;;15.10;99.90;;;;;;5057037;28;20246;-44
2022/05/25 00:56:09;;;;;;;1.53;1.00;;;15.10;99.90;;;;;;5057304;28;20322;-45
2022/05/25 00:58:38;;;;;;;2.43;1.30;;;15.10;99.90;;;;;;5056937;28;20181;-45
2022/05/25 01:01:04;;;;;;;1.77;1.40;;;15.00;99.90;;;;;;5074182;28;20181;-45
2022/05/25 01:03:30;;;;;;;1.47;1.30;;;15.00;99.90;;;;;;5057164;28;20216;-45
2022/05/25 01:06:05;;;;;;;1.50;1.40;;;15.10;99.90;;;;;;5056955;28;20243;-45
2022/05/25 01:08:42;;;;;;;3.03;1.17;;;15.00;99.90;;;;;;5073671;28;20185;-45
2022/05/25 01:11:31;;;;;;;1.37;1.20;;;14.90;99.90;;;;;;5074262;28;20211;-45
2022/05/25 01:14:26;;;;;;;1.30;1.20;;;14.90;99.90;;;;;;5057064;28;20201;-45
2022/05/25 01:17:33;;;;;;;1.40;1.30;;;14.90;99.90;;;;;;5057579;28;20215;-45
2022/05/25 01:20:13;;;;;;;2.27;1.40;;;14.80;99.90;;;;;;5074881;28;20177;-45
2022/05/25 01:23:17;;;;;;;1.57;1.23;;;14.80;99.90;;;;;;5074078;28;20272;-46
2022/05/25 01:26:08;;;;;;;1.20;1.10;;;14.80;99.90;;;;;;5045844;28;20314;-45
2022/05/25 01:29:02;;;;;;;2.07;1.10;;;14.80;99.90;;;;;;5057411;28;20648;-44
2022/05/25 01:31:58;;;;;;;1.70;1.30;;;14.70;99.90;;;;;;5073740;28;20181;-45
2022/05/25 01:34:48;;;;;;;1.07;1.07;;;14.70;99.90;;;;;;5073265;28;20296;-45
2022/05/25 01:37:34;;;;;;;3.37;1.30;;;14.70;99.90;;;;;;5074072;28;20174;-45
2022/05/25 01:40:21;;;;;;;1.50;1.40;;;14.60;99.90;;;;;;5063460;23;20227;-31
2022/05/25 01:42:54;;;;;;;1.53;1.43;;;14.70;99.90;;;;;;4994914;28;20275;-31
2022/05/25 01:45:21;;;;;;;1.43;1.10;;;14.70;99.90;;;;;;5007937;28;20250;-31
2022/05/25 01:47:49;;;;;;;2.77;1.30;;;14.60;99.90;;;;;;5008190;28;20180;-31
2022/05/25 01:50:25;;;;;;;1.53;1.30;;;14.60;99.90;;;;;;4991684;28;20596;-31
2022/05/25 01:52:58;;;;;;;2.70;1.30;;;14.70;99.90;;;;;;5008018;28;20183;-31
2022/05/25 01:55:36;;;;;;;4.27;1.60;;;14.70;99.90;;;;;;5007722;28;20203;-31
2022/05/25 01:58:08;;;;;;;1.33;1.23;;;14.70;99.90;;;;;;5007662;28;20510;-31
2022/05/25 02:00:37;;;;;;;3.03;1.33;;;14.60;99.90;;;;;;5008042;28;20180;-32
2022/05/25 02:06:14;;;;;;;1.43;1.30;;;14.60;99.90;;;;;;4976344;28;20226;-31
2022/05/25 02:08:47;;;;;;;1.53;1.43;;;14.60;99.90;;;;;;5007816;28;20208;-31
2022/05/25 02:11:21;;;;;;;1.50;1.40;;;14.50;99.90;;;;;;5007295;28;20212;-31
2022/05/25 02:14:06;;;;;;;1.87;1.20;;;14.50;99.90;;;;;;5007752;28;20274;-31
2022/05/25 02:16:53;;;;;;;2.00;1.10;;;14.60;99.90;;;;;;5010357;28;20190;-31
2022/05/25 02:19:29;;;;;;;1.73;1.10;;;14.60;99.90;;;;;;5010622;28;20293;-31
2022/05/25 02:22:09;;;;;;;3.70;1.30;;;14.60;99.90;;;;;;5010757;28;20226;-31
2022/05/25 02:24:40;;;;;;;1.30;1.17;;;14.60;99.90;;;;;;5010420;28;20211;-31
2022/05/25 02:27:41;;;;;;;1.30;1.20;;;14.60;99.90;;;;;;5027093;28;20214;-30
2022/05/25 02:30:13;;;;;;;3.17;1.40;;;14.50;99.90;;;;;;5012094;28;20567;-31
2022/05/25 02:33:08;;;;;;;2.33;1.30;;;14.50;99.90;;;;;;5027080;28;20738;-31
2022/05/25 02:35:36;;;;;;;1.30;1.20;;;14.50;99.90;;;;;;5026420;28;20193;-31
2022/05/25 02:38:05;;;;;;;3.30;1.30;;;14.40;99.90;;;;;;5010597;28;20179;-31
2022/05/25 02:40:37;;;;;;;1.40;1.30;;;14.40;99.90;;;;;;5026737;28;20194;-31
2022/05/25 02:43:05;;;;;;;2.97;1.20;;;14.40;99.90;;;;;;5011863;28;20182;-30
2022/05/25 02:45:32;;;;;;;1.83;1.10;;;14.40;99.90;;;;;;5009983;28;20294;-31
2022/05/25 02:47:59;;;;;;;1.77;1.20;;;14.40;99.90;;;;;;5026583;28;20180;-31
2022/05/25 02:50:25;;;;;;;1.30;1.20;;;14.40;99.90;;;;;;5026624;28;20286;-31
2022/05/25 02:52:51;;;;;;;2.53;1.20;;;14.40;99.90;;;;;;5011543;28;20175;-31
2022/05/25 02:55:18;;;;;;;1.20;1.10;;;14.30;99.90;;;;;;5026582;28;20179;-31
2022/05/25 02:57:44;;;;;;;2.70;1.20;;;14.40;99.90;;;;;;5026658;28;20183;-31
2022/05/25 03:00:11;;;;;;;1.20;1.17;;;14.40;99.90;;;;;;5010198;28;20257;-31
2022/05/25 03:02:37;;;;;;;2.10;1.40;;;14.40;99.90;;;;;;5010004;28;20282;-31
2022/05/25 03:05:05;;;;;;;1.87;1.30;;;14.30;99.90;;;;;;5009677;28;20221;-31
2022/05/25 03:07:31;;;;;;;2.07;1.13;;;14.30;99.90;;;;;;4993615;28;20178;-31
2022/05/25 03:09:57;;;;;;;1.30;1.20;;;14.30;99.90;;;;;;5009370;28;20202;-30
2022/05/25 03:12:23;;;;;;;1.67;1.27;;;14.30;99.90;;;;;;5026045;28;20254;-31
2022/05/25 03:14:49;;;;;;;1.40;1.30;;;14.20;99.90;;;;;;5010418;28;20226;-31
2022/05/25 03:17:15;;;;;;;2.17;1.10;;;14.20;99.90;;;;;;5011120;28;20183;-31
2022/05/25 03:19:48;;;;;;;1.50;1.20;;;14.20;99.90;;;;;;5009754;28;20207;-32
2022/05/25 03:22:14;;;;;;;2.90;1.57;;;14.20;99.90;;;;;;5009460;28;20194;-31
2022/05/25 03:24:41;;;;;;;1.80;1.27;;;14.20;99.90;;;;;;5009198;28;20214;-31
2022/05/25 03:27:07;;;;;;;1.30;1.20;;;14.20;99.90;;;;;;5026649;28;20651;-31
2022/05/25 03:29:33;;;;;;;1.70;1.40;;;14.20;99.90;;;;;;5010849;28;20199;-31
2022/05/25 03:32:00;;;;;;;1.40;1.30;;;14.20;99.90;;;;;;5026313;28;20171;-31
2022/05/25 03:34:26;;;;;;;1.93;1.50;;;14.10;99.90;;;;;;5009598;28;20179;-31
2022/05/25 03:36:56;;;;;;;1.50;1.40;;;14.00;99.90;;;;;;5009903;28;20635;-31
2022/05/25 03:39:23;;;;;;;1.40;1.30;;;14.00;99.90;;;;;;5009585;28;20245;-31
2022/05/25 03:42:07;;;;;;;2.00;1.50;;;14.00;99.90;;;;;;5010772;28;20179;-31
2022/05/25 03:44:36;;;;;;;2.17;1.70;;;14.00;99.90;;;;;;5008736;28;20252;-30
2022/05/25 03:47:02;;;;;;;1.60;1.50;;;14.00;99.90;;;;;;4976562;28;20184;-31
2022/05/25 03:49:28;;;;;;;1.50;1.40;;;13.90;99.90;;;;;;4995564;28;20199;-32
2022/05/25 03:51:54;;;;;;;1.30;1.20;;;13.90;99.90;;;;;;4995353;28;20176;-31
2022/05/25 03:54:20;;;;;;;2.77;1.43;;;13.90;99.90;;;;;;4993842;28;20191;-31
2022/05/25 03:56:46;;;;;;;2.17;1.50;;;14.00;99.90;;;;;;4977418;28;20176;-31
2022/05/25 03:59:12;;;;;;;1.40;1.30;;;14.00;99.90;;;;;;4993615;28;20207;-31
2022/05/25 04:01:38;;;;;;;1.57;1.33;;;14.00;99.90;;;;;;4993884;28;20186;-31
2022/05/25 04:04:05;;;;;;;3.53;1.33;;;14.00;99.90;;;;;;4993747;28;20254;-31
2022/05/25 04:06:31;;;;;;;3.00;1.63;;;14.00;99.90;;;;;;4993667;28;20183;-31
2022/05/25 04:08:57;;;;;;;2.10;1.60;;;14.00;99.90;;;;;;4993552;28;20208;-31
2022/05/25 04:11:23;;;;;;;1.40;1.30;;;14.00;99.90;;;;;;4977379;28;20683;-31
2022/05/25 04:13:49;;;;;;;3.00;1.30;;;13.90;99.90;;;;;;4994673;28;20284;-30
2022/05/25 04:16:15;;;;;;;1.40;1.30;;;13.90;99.90;;;;;;5008431;28;20183;-31
2022/05/25 04:18:41;;;;;;;1.40;1.20;;;13.90;99.90;;;;;;4996718;28;20199;-31
2022/05/25 04:21:07;;;;;;;1.50;1.40;;;13.80;99.90;;;;;;5012947;28;20175;-31
2022/05/25 04:23:33;;;;;;;2.57;1.60;;;13.70;99.90;;;;;;5029079;28;20178;-30
2022/05/25 04:25:59;;;;;;;1.50;1.40;;;13.70;99.90;;;;;;5009177;28;20230;-31
2022/05/25 04:28:24;;;;;;;1.57;1.47;;;13.60;99.90;;;;;;4993219;28;20458;-31
2022/05/25 04:30:50;;;;;;;2.57;1.60;;;13.70;99.90;;;;;;4985668;28;20183;-31
2022/05/25 04:33:17;;;;;;;1.90;1.77;;;13.70;99.90;;;;;;5003820;28;20242;-31
2022/05/25 04:35:43;;;;;;;1.40;1.30;;;13.80;99.90;;;;;;5010274;28;20213;-30
2022/05/25 04:38:13;;;;;;;1.93;1.50;;;13.80;99.90;;;;;;4997822;28;20179;-31
2022/05/25 04:40:43;;;;;;;1.50;1.40;;;13.80;99.90;;;;;;5014207;28;20211;-30
2022/05/25 04:43:12;;;;;;;1.53;1.20;;;13.80;99.90;;;;;;5013583;28;20178;-31
2022/05/25 04:45:43;;;;;;;2.60;1.40;;;13.90;99.90;;;;;;5012395;28;20312;-31
2022/05/25 04:48:09;;;;;;;2.07;1.20;;;13.80;99.90;;;;;;5012431;28;20185;-31
2022/05/25 04:50:41;;;;;;;1.40;1.30;;;13.90;99.90;;;;;;5028950;28;20176;-31
2022/05/25 04:53:09;;;;;;;1.40;1.30;;;13.90;99.90;;;;;;5013571;28;20198;-30
2022/05/25 04:58:47;;;;;;;2.17;1.60;;;14.00;99.90;;;;;;5003471;28;20195;-31
2022/05/25 05:01:16;;;;;;;2.73;1.30;;;13.90;99.90;;;;;;4974607;28;20191;-31
2022/05/25 05:03:42;;;;;;;1.87;1.33;;;13.90;99.90;;;;;;4995261;28;20369;-31
2022/05/25 05:06:10;;;;;;;2.20;1.20;;;13.90;99.90;;;;;;4994360;28;20306;-31
2022/05/25 05:08:36;;;;;;;2.43;1.40;;;14.00;99.90;;;;;;4994152;28;20199;-31
2022/05/25 05:11:11;;;;;;;1.40;1.30;;;14.00;99.90;;;;;;4994266;28;20180;-31
2022/05/25 05:13:37;;;;;;;1.40;1.30;;;14.00;99.90;;;;;;4977800;28;20266;-31
2022/05/25 05:16:07;;;;;;;1.50;1.23;;;14.10;99.90;;;;;;5008296;28;20214;-31
2022/05/25 05:18:33;;;;;;;1.50;1.40;;;14.10;99.90;;;;;;5013362;28;20260;-31
2022/05/25 05:21:02;;;;;;;1.40;1.30;;;14.00;99.90;;;;;;5013251;28;20238;-31
2022/05/25 05:23:29;;;;;;;3.53;1.63;;;14.00;99.90;;;;;;5011661;28;20797;-29
2022/05/25 05:25:56;;;;;;;1.77;1.60;;;14.00;99.90;;;;;;5004152;28;20202;-31
2022/05/25 05:28:31;;;;;;;2.07;1.47;;;14.10;99.90;;;;;;5003181;28;20219;-31
2022/05/25 05:31:02;;;;;;;4.57;1.40;;;14.20;99.90;;;;;;5003389;28;20168;-30
2022/05/25 05:33:29;;;;;;;3.13;1.60;;;14.40;99.90;;;;;;5016787;28;20175;-31
2022/05/25 05:36:14;;;;;;;2.27;1.40;;;14.50;99.90;;;;;;5005871;28;20184;-31
2022/05/25 05:39:07;;;;;;;1.93;1.20;;;14.70;99.90;;;;;;5027904;28;20219;-31
2022/05/25 05:41:42;;;;;;;1.30;1.20;;;14.90;99.90;;;;;;5005568;28;20199;-31
2022/05/25 05:44:10;;;;;;;2.60;1.33;;;14.90;99.90;;;;;;5027262;28;20290;-31
2022/05/25 05:46:41;;;;;;;2.97;1.33;;;15.00;99.90;;;;;;4993922;28;20188;-31
2022/05/25 05:49:11;;;;;;;1.37;1.27;;;15.10;99.90;;;;;;4992857;28;20255;-30
2022/05/25 05:51:37;;;;;;;2.73;1.40;;;15.10;99.90;;;;;;4993382;28;20168;-31
2022/05/25 05:54:03;;;;;;;2.27;1.37;;;15.20;99.90;;;;;;4975350;28;20184;-31
2022/05/25 05:56:32;;;;;;;4.47;1.30;;;15.20;99.90;;;;;;4991973;28;20211;-31
2022/05/25 05:58:59;;;;;;;1.37;1.20;;;15.20;99.90;;;;;;5007825;28;20196;-31
2022/05/25 06:01:25;;;;;;;2.90;1.20;;;15.20;99.90;;;;;;4975491;28;20180;-31
2022/05/25 06:03:50;;;;;;;1.27;1.17;;;15.20;99.90;;;;;;4990994;28;20715;-31
2022/05/25 06:06:16;;;;;;;2.10;1.20;;;15.20;99.90;;;;;;5007680;28;20176;-31
2022/05/25 06:08:46;;;;;;;1.80;1.40;;;15.20;99.90;;;;;;4990340;28;20254;-31
2022/05/25 06:11:17;;;;;;;1.80;1.33;;;15.20;99.90;;;;;;4991164;28;20183;-31
2022/05/25 06:13:43;;;;;;;1.60;1.50;;;15.20;99.90;;;;;;4975018;28;20195;-31
2022/05/25 06:22:12;;;;;;;1.57;1.40;;;15.60;99.90;;;;;;4957919;28;20230;-31
2022/05/25 06:24:50;;;;;;;1.50;1.37;;;15.70;99.90;;;;;;4976074;28;20215;-31
2022/05/25 06:27:17;;;;;;;2.63;1.43;;;15.80;99.90;;;;;;5024436;28;20179;-31
2022/05/25 06:29:46;;;;;;;2.20;1.40;;;15.80;99.90;;;;;;5011632;28;20195;-31
2022/05/25 06:34:54;;;;;;;4.50;1.40;;;16.00;99.90;;;;;;5018797;23;20265;-37
2022/05/25 06:37:23;;;;;;;2.13;1.30;;;16.20;99.90;;;;;;4974549;28;20176;-35
2022/05/25 06:39:49;;;;;;;3.87;1.27;;;16.30;99.90;;;;;;5007373;28;20176;-35
2022/05/25 06:42:15;;;;;;;1.57;1.30;;;16.50;99.90;;;;;;4990877;28;20262;-35
2022/05/25 06:44:52;;;;;;;1.47;1.07;;;16.50;99.90;;;;;;4990658;28;20265;-35
2022/05/25 06:47:32;;;;;;;4.03;1.20;;;16.40;99.90;;;;;;5033179;23;20222;-88
2022/05/25 06:49:58;;;;;;;2.23;1.10;;;16.50;99.90;;;;;;5015446;28;20202;-88
2022/05/25 06:52:31;;;;;;;2.87;1.13;;;16.60;99.90;;;;;;5015080;28;20202;-88
2022/05/25 06:54:57;;;;;;;1.07;0.90;;;16.70;99.90;;;;;;5031708;28;20302;-90
2022/05/25 06:57:25;;;;;;;2.40;1.10;;;16.70;99.90;;;;;;5015349;28;20269;-88
2022/05/25 06:59:51;;;;;;;1.17;0.93;;;16.90;99.90;;;;;;5015598;28;20192;-88
2022/05/25 07:02:17;;;;;;;0.83;0.80;;;16.90;99.90;;;;;;5015664;28;20190;-88
2022/05/25 07:04:43;;;;;;;2.30;1.03;;;17.10;99.90;;;;;;5015149;28;20308;-88
2022/05/25 07:07:09;;;;;;;1.87;1.00;;;17.20;99.90;;;;;;5015514;28;20265;-89
2022/05/25 07:09:39;;;;;;;1.10;1.03;;;17.20;99.90;;;;;;5015547;28;20190;-88
2022/05/25 07:12:06;;;;;;;0.80;0.80;;;17.20;99.90;;;;;;5015332;28;20261;-88
2022/05/25 07:14:32;;;;;;;0.97;0.90;;;17.20;99.90;;;;;;5031206;28;20248;-88
2022/05/25 07:17:00;;;;;;;1.25;0.90;;;17.20;99.90;;;;;;5014967;28;20186;-89
2022/05/25 07:19:27;;;;;;;1.95;1.00;;;17.20;99.90;;;;;;5014450;28;20182;-88
2022/05/25 07:21:56;;;;;;;1.48;0.90;;;17.10;99.90;;;;;;5014512;28;20638;-88
2022/05/25 07:24:22;;;;;;;3.03;0.85;;;17.30;99.90;;;;;;5015001;28;20210;-88
2022/05/25 07:26:48;;;;;;;1.85;0.80;;;17.60;99.90;;;;;;5014545;28;20198;-89
2022/05/25 07:29:14;;;;;;;0.77;0.73;;;17.70;99.90;;;;;;5015535;28;20193;-89
2022/05/25 07:31:48;;;;;;;1.05;0.95;;;17.90;99.90;;;;;;5004761;28;20182;-88
2022/05/25 07:34:16;;;;;;;1.52;0.80;;;18.00;99.90;;;;;;4995822;28;20265;-89
2022/05/25 07:36:46;;;;;;;1.98;1.00;;;18.10;99.90;;;;;;5011614;28;20186;-88
2022/05/25 07:39:15;;;;;;;1.10;0.82;;;18.20;99.90;;;;;;5024860;28;20208;-78
2022/05/25 07:41:48;;;;;;;1.33;0.90;;;18.30;99.90;;;;;;5026464;28;20198;-79
2022/05/25 07:44:20;;;;;;;0.73;0.70;;;18.40;99.90;;;;;;5014976;28;20221;-78
2022/05/25 07:46:49;;;;;;;1.42;0.82;;;18.50;99.90;;;;;;5013885;28;20195;-79
2022/05/25 07:49:16;;;;;;;1.25;0.90;;;18.70;99.90;;;;;;5031713;28;20174;-79
2022/05/25 07:51:42;;;;;;;1.80;0.98;;;18.70;99.90;;;;;;5015387;28;20178;-89
2022/05/25 07:54:09;;;;;;;0.70;0.70;;;18.90;99.90;;;;;;5014905;28;20198;-89
2022/05/25 08:00:25;;;;;;;0.80;0.70;;;19.00;99.90;;;;;;5033254;28;20162;-89
2022/05/25 08:05:49;;;;;;;0.70;0.70;;;19.00;99.90;;;;;;5031435;28;20210;-88
2022/05/25 08:08:20;;;;;;;1.92;1.15;;;19.20;99.90;;;;;;5015527;28;20174;-89
2022/05/25 08:10:51;;;;;;;1.73;1.10;;;19.10;99.90;;;;;;5015196;28;20186;-89
2022/05/25 08:13:18;;;;;;;2.50;1.00;;;19.10;99.90;;;;;;5015632;28;20183;-89
2022/05/25 08:15:45;;;;;;;1.13;1.00;;;19.10;99.90;;;;;;5018956;28;20213;-88
2022/05/25 08:18:15;;;;;;;1.23;0.88;;;19.00;99.90;;;;;;5015530;28;20179;-89
2022/05/25 08:20:42;;;;;;;1.65;0.68;;;18.90;99.90;;;;;;5015199;28;20277;-88
2022/05/25 08:23:11;;;;;;;2.45;0.90;;;19.00;99.90;;;;;;5015093;28;20186;-89
2022/05/25 08:25:38;;;;;;;1.83;0.93;;;19.20;99.90;;;;;;5013762;28;20217;-89
2022/05/25 08:28:05;;;;;;;3.38;0.88;;;19.40;99.90;;;;;;5015233;28;20225;-80
2022/05/25 08:30:33;;;;;;;2.00;1.00;;;19.60;99.90;;;;;;5015655;28;20206;-80
2022/05/25 08:32:59;;;;;;;1.60;0.88;;;19.60;99.90;;;;;;5017773;28;20252;-80
2022/05/25 08:35:27;;;;;;;2.15;0.73;;;19.90;99.90;;;;;;5009624;28;20211;-88
2022/05/25 08:37:53;;;;;;;1.15;0.85;;;20.20;99.90;;;;;;5014644;28;20182;-89
2022/05/25 08:40:22;;;;;;;3.13;1.00;;;20.40;99.90;;;;;;5018038;28;20193;-90
2022/05/25 08:43:14;;;;;;;1.02;0.82;;;20.40;99.90;;;;;;5018328;28;20183;-89
2022/05/25 08:45:44;;;;;;;2.08;0.80;;;20.30;99.90;;;;;;5034617;28;20343;-89
2022/05/25 08:48:15;;;;;;;2.35;1.00;;;20.40;99.90;;;;;;5037968;28;20333;-89
2022/05/25 08:50:42;;;;;;;1.67;1.10;;;20.50;99.90;;;;;;5041928;28;20204;-90
2022/05/25 08:53:11;;;;;;;0.82;0.77;;;20.80;99.90;;;;;;5050362;28;20323;-89
2022/05/25 08:56:05;;;;;;;1.38;0.90;;;20.40;99.90;;;;;;5037791;28;20221;-89
2022/05/25 08:58:47;;;;;;;2.40;0.93;;;20.30;99.90;;;;;;5038103;28;20177;-90
2022/05/25 09:01:25;;;;;;;1.55;0.70;;;20.00;99.90;;;;;;5038212;28;20174;-89
2022/05/25 09:04:12;;;;;;;0.98;0.90;;;19.90;99.90;;;;;;5037374;28;20708;-89
2022/05/25 09:07:17;;;;;;;4.25;1.00;;;19.70;99.90;;;;;;5037627;28;20200;-89
2022/05/25 09:09:48;;;;;;;2.05;0.90;;;19.70;99.90;;;;;;5017413;28;20193;-89
2022/05/25 09:12:22;;;;;;;0.98;0.82;;;20.10;99.90;;;;;;5037361;28;20190;-84
2022/05/25 09:15:02;;;;;;;1.48;0.90;;;20.40;99.90;;;;;;5029076;28;20206;-83
2022/05/25 09:17:58;;;;;;;1.52;0.70;;;20.60;99.90;;;;;;5014990;28;20183;-84
2022/05/25 09:20:31;;;;;;;1.05;0.70;;;20.90;99.90;;;;;;4999388;28;20182;-84
2022/05/25 09:22:58;;;;;;;1.75;0.90;;;21.10;99.90;;;;;;5000072;28;20194;-84
2022/05/25 09:25:24;;;;;;;0.73;0.73;;;21.10;99.90;;;;;;4997600;28;20218;-86
2022/05/25 09:28:19;;;;;;;1.00;0.90;;;20.90;99.90;;;;;;4997962;28;20175;-86
2022/05/25 09:30:48;;;;;;;2.15;1.00;;;21.00;99.90;;;;;;4995045;28;20721;-86
2022/05/25 09:33:31;;;;;;;1.73;0.93;;;21.20;99.90;;;;;;4997940;28;20175;-89
2022/05/25 09:36:21;;;;;;;1.65;0.90;;;21.30;99.90;;;;;;4997807;28;20175;-89
2022/05/25 09:39:04;;;;;;;1.67;0.90;;;21.30;99.90;;;;;;4997728;28;20191;-89
2022/05/25 09:41:32;;;;;;;0.73;0.73;;;21.30;99.90;;;;;;4997675;28;20183;-89
2022/05/25 09:44:02;;;;;;;1.88;0.90;;;21.20;99.90;;;;;;4997475;28;20207;-89
2022/05/25 09:46:48;;;;;;;1.40;0.90;;;21.20;99.90;;;;;;4997406;28;20234;-89
2022/05/25 09:49:40;;;;;;;1.73;0.70;;;20.90;99.90;;;;;;4997815;28;20179;-89
2022/05/25 09:52:19;;;;;;;0.95;0.85;;;20.80;99.90;;;;;;4997784;28;20175;-89
2022/05/25 09:55:01;;;;;;;0.82;0.80;;;20.50;99.90;;;;;;4997057;28;20239;-89
2022/05/25 09:57:56;;;;;;;2.15;0.95;;;20.40;99.90;;;;;;5014123;28;20237;-89
2022/05/25 10:00:40;;;;;;;1.73;0.90;;;20.20;99.90;;;;;;5008526;28;20196;-89
2022/05/25 10:03:13;;;;;;;3.42;1.10;;;20.10;99.90;;;;;;4997469;28;20294;-89
2022/05/25 10:05:54;;;;;;;1.50;1.13;;;20.00;99.90;;;;;;4997353;28;20211;-90
2022/05/25 10:08:32;;;;;;;1.63;0.90;;;19.90;99.90;;;;;;4996871;28;20282;-90
2022/05/25 10:11:32;;;;;;;1.98;0.93;;;20.10;99.90;;;;;;4997204;28;20167;-90
2022/05/25 10:14:15;;;;;;;1.70;0.98;;;20.50;99.90;;;;;;5012611;28;20230;-89
2022/05/25 10:16:41;;;;;;;2.60;0.90;;;21.00;99.90;;;;;;5013272;28;20179;-89
2022/05/25 10:19:13;;;;;;;1.17;0.95;;;21.00;99.90;;;;;;4997343;28;20186;-89
2022/05/25 10:21:45;;;;;;;3.13;0.70;;;21.20;99.90;;;;;;4996743;28;20523;-89
2022/05/25 10:24:20;;;;;;;0.80;0.80;;;21.50;99.90;;;;;;4996236;28;20306;-89
2022/05/25 10:26:53;;;;;;;1.42;1.00;;;21.70;99.90;;;;;;4996266;28;20190;-89
2022/05/25 10:38:30;;;;;;;2.53;1.05;;;22.10;99.50;;;;;;5032701;28;20201;-89
2022/05/25 10:41:37;;;;;;;1.80;0.95;;;22.10;99.30;;;;;;5015454;28;20297;-89
2022/05/25 10:43:46;;;;;;;1.08;0.80;;;22.10;98.20;;;;;;5031863;28;20205;-90
2022/05/25 10:46:15;;;;;;;1.95;1.00;;;22.30;99.90;;;;;;5015694;28;20237;-89
2022/05/25 10:48:47;;;;;;;4.13;1.10;;;22.30;99.30;;;;;;5011802;28;20179;-89
2022/05/25 10:51:28;;;;;;;0.93;0.90;;;22.10;98.10;;;;;;5012040;28;20183;-90
2022/05/25 10:54:46;;;;;;;0.95;0.80;;;21.80;98.30;;;;;;4995907;28;20199;-89
2022/05/25 10:57:39;;;;;;;3.13;1.10;;;21.60;98.90;;;;;;5009625;28;20232;-89
2022/05/25 11:00:12;;;;;;;0.82;0.80;;;21.40;98.30;;;;;;4998216;28;20183;-89
2022/05/25 11:02:55;;;;;;;2.45;1.00;;;21.60;99.90;;;;;;5009512;28;20298;-89
2022/05/25 11:05:52;;;;;;;1.33;0.80;;;21.90;98.50;;;;;;5013861;28;20269;-89
2022/05/25 11:08:31;;;;;;;2.63;0.98;;;22.30;97.90;;;;;;5014733;28;20293;-89
2022/05/25 11:11:03;;;;;;;1.55;0.90;;;22.40;96.50;;;;;;5004569;28;20174;-89
2022/05/25 11:13:51;;;;;;;1.60;1.40;;;22.80;95.50;;;;;;5014925;28;20229;-90
2022/05/25 11:16:44;;;;;;;0.90;0.73;;;23.20;94.60;;;;;;5015286;28;20193;-90
2022/05/25 11:19:49;;;;;;;10.30;6.10;;;23.40;93.90;;;;;;5015077;28;20187;-89
2022/05/25 11:22:32;;;;;;;52.47;35.67;;;23.80;94.10;;;;;;5019846;28;20241;-89
2022/05/25 11:25:10;;;;;;;1.65;1.02;;;24.30;95.30;;;;;;5008956;28;20216;-89
2022/05/25 11:27:57;;;;;;;1.75;0.85;;;24.10;93.10;;;;;;5015245;28;20166;-89
2022/05/25 11:30:55;;;;;;;15.35;11.82;;;24.30;92.70;;;;;;5014646;28;20186;-90
2022/05/25 11:33:27;;;;;;;47.83;40.72;;;24.10;94.30;;;;;;5014969;28;20328;-89
2022/05/25 11:36:27;;;;;;;165.35;126.40;;;23.90;94.30;;;;;;4996036;28;20203;-89
2022/05/25 11:39:12;;;;;;;14.98;11.80;;;23.60;95.50;;;;;;5016317;28;20186;-89
2022/05/25 11:41:55;;;;;;;0.98;0.80;;;23.30;93.60;;;;;;5014587;28;20181;-89
2022/05/25 11:44:39;;;;;;;0.90;0.90;;;22.90;94.60;;;;;;5009819;28;20491;-86
2022/05/25 11:47:36;;;;;;;6.18;4.53;;;23.00;94.90;;;;;;5028632;28;20252;-90
2022/05/25 11:50:09;;;;;;;1.70;1.38;;;23.40;96.30;;;;;;5010074;28;20249;-90
2022/05/25 11:52:58;;;;;;;1.33;1.20;;;23.50;94.10;;;;;;5014874;28;20189;-90
2022/05/25 11:55:33;;;;;;;1.60;0.93;;;23.70;93.20;;;;;;5014739;28;20206;-91
2022/05/25 11:58:08;;;;;;;4.53;4.13;;;24.20;93.30;;;;;;5014917;28;20189;-91
2022/05/25 12:00:44;;;;;;;2.00;1.65;;;24.20;92.70;;;;;;5014764;28;20171;-90
2022/05/25 12:03:30;;;;;;;1.50;0.77;;;24.20;93.90;;;;;;5015003;28;20167;-91
2022/05/25 12:06:30;;;;;;;1.17;0.80;;;23.90;92.20;;;;;;5014328;28;20236;-91
2022/05/25 12:09:29;;;;;;;1.55;0.80;;;23.60;92.10;;;;;;5018359;28;20262;-90
2022/05/25 12:12:24;;;;;;;0.70;0.60;;;23.60;92.50;;;;;;5018630;28;20785;-90
2022/05/25 12:15:11;;;;;;;0.95;0.70;;;23.40;92.10;;;;;;5018845;28;20214;-90
2022/05/25 12:17:53;;;;;;;1.58;0.73;;;23.00;92.50;;;;;;5018065;28;20265;-90
2022/05/25 12:20:33;;;;;;;1.40;0.80;;;23.20;92.50;;;;;;5018439;28;20167;-90
2022/05/25 12:23:05;;;;;;;2.00;1.00;;;23.60;92.80;;;;;;5022642;28;20210;-89
2022/05/25 12:25:35;;;;;;;0.80;0.65;;;24.20;92.20;;;;;;5027807;28;20241;-89
2022/05/25 12:28:32;;;;;;;1.65;0.80;;;24.70;91.50;;;;;;5045848;28;20227;-89
2022/05/25 12:31:04;;;;;;;0.85;0.85;;;25.00;90.70;;;;;;5033638;28;20201;-89
2022/05/25 12:33:32;;;;;;;0.60;0.60;;;25.10;89.30;;;;;;5039962;28;20186;-89
2022/05/25 12:36:05;;;;;;;1.65;0.70;;;25.40;90.70;;;;;;5028991;28;20650;-90
2022/05/25 12:38:32;;;;;;;1.73;0.80;;;25.20;86.40;;;;;;5040373;28;20158;-90
2022/05/25 12:41:32;;;;;;;1.85;0.77;;;24.90;87.80;;;;;;5038957;28;20257;-90
2022/05/25 12:43:59;;;;;;;4.93;4.60;;;24.60;90.00;;;;;;5037683;28;20205;-90
2022/05/25 12:49:38;;;;;;;0.77;0.60;;;24.50;88.90;;;;;;5034646;28;20186;-90
2022/05/25 12:52:41;;;;;;;1.75;0.70;;;24.70;89.00;;;;;;5017433;28;20179;-90
2022/05/25 12:55:20;;;;;;;2.60;0.70;;;24.90;90.60;;;;;;4960964;28;20206;-90
2022/05/25 12:57:50;;;;;;;1.52;0.70;;;25.10;87.20;;;;;;5011718;28;20273;-91
2022/05/25 13:00:33;;;;;;;1.63;0.60;;;25.20;86.20;;;;;;5018174;28;20201;-90
2022/05/25 13:03:19;;;;;;;2.03;1.00;;;25.40;84.20;;;;;;5018279;28;20174;-90
2022/05/25 13:05:59;;;;;;;1.60;0.80;;;25.50;85.50;;;;;;5017595;28;20210;-91
2022/05/25 13:08:48;;;;;;;2.55;0.70;;;25.20;86.30;;;;;;5017452;28;20181;-91
2022/05/25 13:11:33;;;;;;;1.83;0.95;;;24.60;86.50;;;;;;5044881;28;20241;-91
2022/05/25 13:14:01;;;;;;;1.88;0.70;;;24.80;86.00;;;;;;5018138;28;20205;-87
2022/05/25 13:16:45;;;;;;;0.98;0.63;;;25.20;87.70;;;;;;5015810;28;20250;-88
2022/05/25 13:19:15;;;;;;;4.05;1.05;;;25.20;84.30;;;;;;5006738;28;20245;-87
2022/05/25 13:21:44;;;;;;;6.15;1.15;;;24.80;86.10;;;;;;5004878;28;20188;-83
2022/05/25 13:24:47;;;;;;;1.60;0.80;;;25.00;86.40;;;;;;5016827;28;20202;-86
2022/05/25 13:27:16;;;;;;;1.77;0.80;;;25.30;86.10;;;;;;5013397;28;20237;-86
2022/05/25 13:30:37;;;;;;;4.25;0.73;;;25.40;84.40;;;;;;4997071;28;20210;-86
2022/05/25 13:33:27;;;;;;;0.98;0.77;;;25.40;86.10;;;;;;4959961;28;20184;-86
2022/05/25 13:36:13;;;;;;;0.70;0.70;;;25.70;82.90;;;;;;5002547;28;20218;-85
2022/05/25 13:38:46;;;;;;;0.80;0.60;;;25.80;82.60;;;;;;5015386;28;20202;-86
2022/05/25 13:41:19;;;;;;;0.77;0.60;;;25.90;83.20;;;;;;5016800;28;20189;-86
2022/05/25 13:44:09;;;;;;;1.10;0.77;;;26.10;83.20;;;;;;5015332;28;20801;-90
2022/05/25 13:46:47;;;;;;;2.28;0.70;;;25.90;81.60;;;;;;5034587;28;20227;-90
2022/05/25 13:49:24;;;;;;;2.40;0.73;;;26.10;81.50;;;;;;5023682;28;20240;-90
2022/05/25 13:52:07;;;;;;;1.60;0.65;;;26.10;82.40;;;;;;5017556;28;20205;-90
2022/05/25 13:54:35;;;;;;;2.83;0.73;;;26.40;80.60;;;;;;5014221;28;20207;-83
2022/05/25 13:57:01;;;;;;;2.25;0.75;;;26.50;80.60;;;;;;5031272;28;20244;-83
2022/05/25 13:59:39;;;;;;;2.33;0.77;;;26.90;82.30;;;;;;5021849;28;20186;-84